createdAt,value
2022-12-24T00:01:33.569Z,6.64
2022-12-24T00:04:00.424Z,6.67
2022-12-24T00:06:27.305Z,6.69
2022-12-24T00:08:54.196Z,6.77
2022-12-24T00:11:21.487Z,6.79
2022-12-24T00:13:48.880Z,6.78
2022-12-24T00:16:16.569Z,6.98
2022-12-24T00:18:46.329Z,6.93
2022-12-24T00:21:15.702Z,6.94
2022-12-24T00:23:43.073Z,6.86
2022-12-24T00:26:14.874Z,6.88
2022-12-24T00:28:43.706Z,6.89
2022-12-24T00:31:15.876Z,6.85
2022-12-24T00:33:47.510Z,6.82
2022-12-24T00:36:14.396Z,6.74
2022-12-24T00:38:41.068Z,6.74
2022-12-24T00:41:24.630Z,6.75
2022-12-24T00:43:53.016Z,6.81
2022-12-24T00:46:21.604Z,6.69
2022-12-24T00:48:48.989Z,6.68
2022-12-24T00:51:16.070Z,6.70
2022-12-24T02:43:20.978Z,11.58
2022-12-24T02:45:58.556Z,11.52
2022-12-24T02:48:27.001Z,11.57
2022-12-24T02:53:56.262Z,11.34
2022-12-24T03:32:32.250Z,10.78
2022-12-24T03:34:58.971Z,10.69
2022-12-24T03:37:26.708Z,10.62
2022-12-24T03:39:53.447Z,10.60
2022-12-24T03:42:20.170Z,10.57
2022-12-24T03:44:46.834Z,10.60
2022-12-24T03:47:13.453Z,10.62
2022-12-24T03:49:40.133Z,10.63
2022-12-24T03:52:06.754Z,10.68
2022-12-24T03:54:33.550Z,10.70
2022-12-24T03:57:00.187Z,10.64
2022-12-24T03:59:27.901Z,10.64
2022-12-24T04:01:54.810Z,10.74
2022-12-24T04:27:58.218Z,11.69
2022-12-24T04:30:24.937Z,11.58
2022-12-24T04:32:51.577Z,11.45
2022-12-24T04:35:18.215Z,11.72
2022-12-24T04:43:43.298Z,11.64
2022-12-24T04:46:10.034Z,11.60
2022-12-24T04:48:37.843Z,11.49
2022-12-24T04:51:06.039Z,11.56
2022-12-24T04:53:33.201Z,11.44
2022-12-24T04:56:00.008Z,11.37
2022-12-24T04:58:26.900Z,11.34
2022-12-24T05:00:53.950Z,11.34
2022-12-24T05:03:20.823Z,11.28
2022-12-24T05:05:47.986Z,11.30
2022-12-24T05:08:14.653Z,11.21
2022-12-24T05:10:41.360Z,11.34
2022-12-24T05:13:07.988Z,11.20
2022-12-24T05:15:34.640Z,11.14
2022-12-24T05:18:01.290Z,11.06
2022-12-24T05:20:27.938Z,11.07
2022-12-24T05:23:13.073Z,11.00
2022-12-24T05:25:58.422Z,10.93
2022-12-24T05:28:25.199Z,11.07
2022-12-24T05:30:51.968Z,10.93
2022-12-24T05:33:18.759Z,10.92
2022-12-24T05:35:45.447Z,10.96
2022-12-24T05:38:12.117Z,10.76
2022-12-24T05:40:38.787Z,10.88
2022-12-24T05:43:05.488Z,10.77
2022-12-24T05:45:35.352Z,11.01
2022-12-24T06:11:31.367Z,11.27
2022-12-24T06:13:58.033Z,11.24
2022-12-24T06:16:25.675Z,11.38
2022-12-24T06:18:52.888Z,11.40
2022-12-24T06:21:20.182Z,11.69
2022-12-24T06:54:48.418Z,11.07
2022-12-24T06:57:15.131Z,11.04
2022-12-24T06:59:41.810Z,10.86
2022-12-24T07:02:09.732Z,10.78
2022-12-24T07:04:36.551Z,10.74
2022-12-24T07:07:03.275Z,10.67
2022-12-24T07:09:29.990Z,10.67
2022-12-24T07:11:56.653Z,10.50
2022-12-24T07:14:23.694Z,10.48
2022-12-24T07:17:13.276Z,10.52
2022-12-24T07:20:02.255Z,10.47
2022-12-24T07:22:33.926Z,10.33
2022-12-24T07:25:01.194Z,10.43
2022-12-24T07:27:28.881Z,10.42
2022-12-24T07:29:55.909Z,10.39
2022-12-24T07:32:40.220Z,10.66
2022-12-24T07:41:12.413Z,10.81
2022-12-24T07:43:48.004Z,10.84
2022-12-24T07:46:31.922Z,10.97
2022-12-24T07:52:40.245Z,11.15
2022-12-24T07:55:07.807Z,11.22
2022-12-24T07:57:38.095Z,11.14
2022-12-24T08:00:10.100Z,11.07
2022-12-24T08:02:56.469Z,10.91
2022-12-24T08:20:52.528Z,11.48
2022-12-24T08:23:19.176Z,11.43
2022-12-24T08:25:47.485Z,11.40
2022-12-24T08:28:15.989Z,11.38
2022-12-24T08:30:44.582Z,11.43
2022-12-24T08:33:11.295Z,11.35
2022-12-24T08:35:38.248Z,11.16
2022-12-24T08:38:04.888Z,11.14
2022-12-24T08:40:31.566Z,11.12
2022-12-24T08:42:58.346Z,11.22
2022-12-24T08:45:25.016Z,11.26
2022-12-24T08:47:51.646Z,11.37
2022-12-24T08:50:18.301Z,11.20
2022-12-24T08:52:44.923Z,11.30
2022-12-24T08:55:11.573Z,11.46
2022-12-24T08:57:38.239Z,11.59
2022-12-24T09:00:06.242Z,11.68
2022-12-24T09:02:33.104Z,11.70
2022-12-24T09:04:59.878Z,11.80
2022-12-24T09:07:26.461Z,11.80
2022-12-24T09:09:53.014Z,11.69
2022-12-24T09:12:19.578Z,11.72
2022-12-24T09:14:46.264Z,11.67
2022-12-24T09:17:12.919Z,11.66
2022-12-24T09:19:39.558Z,11.66
2022-12-24T09:22:06.167Z,11.74
2022-12-24T09:24:33.026Z,11.65
2022-12-24T09:26:59.634Z,11.59
2022-12-24T09:29:26.248Z,11.72
2022-12-24T09:31:55.160Z,11.77
2022-12-24T09:34:28.271Z,11.95
2022-12-24T09:36:56.960Z,12.09
2022-12-24T09:39:23.634Z,12.10
2022-12-24T09:42:05.212Z,12.23
2022-12-24T09:44:59.501Z,12.45
2022-12-24T09:47:29.222Z,12.54
2022-12-24T09:49:57.560Z,12.63
2022-12-24T09:52:35.557Z,12.62
2022-12-24T09:55:27.340Z,12.76
2022-12-24T09:57:54.893Z,12.79
2022-12-24T10:00:24.531Z,12.89
2022-12-24T10:02:51.504Z,13.03
2022-12-24T10:05:19.226Z,13.27
2022-12-24T10:08:03.487Z,13.37
2022-12-24T10:10:43.430Z,13.61
2022-12-24T10:13:18.327Z,13.64
2022-12-24T10:16:01.216Z,13.83
2022-12-24T10:18:34.979Z,13.90
2022-12-24T10:21:38.333Z,14.10
2022-12-24T10:24:15.581Z,14.09
2022-12-24T10:26:48.663Z,14.12
2022-12-24T10:29:21.205Z,14.26
2022-12-24T10:31:57.459Z,14.35
2022-12-24T10:34:25.507Z,14.26
2022-12-24T10:36:52.215Z,14.07
2022-12-24T10:39:21.572Z,13.93
2022-12-24T10:41:49.999Z,13.96
2022-12-24T10:44:19.007Z,13.86
2022-12-24T10:46:46.737Z,13.78
2022-12-24T10:49:19.627Z,13.62
2022-12-24T10:52:04.985Z,13.85
2022-12-24T10:54:39.022Z,13.90
2022-12-24T10:57:07.504Z,13.79
2022-12-24T10:59:34.046Z,13.93
2022-12-24T11:02:01.827Z,13.97
2022-12-24T11:04:30.883Z,14.08
2022-12-24T11:07:06.258Z,14.00
2022-12-24T11:09:41.260Z,13.96
2022-12-24T11:12:22.498Z,13.78
2022-12-24T11:15:00.114Z,13.77
2022-12-24T11:17:26.903Z,13.88
2022-12-24T11:19:53.670Z,13.78
2022-12-24T11:22:25.625Z,13.59
2022-12-24T11:25:00.515Z,13.37
2022-12-24T11:27:51.953Z,13.51
2022-12-24T11:41:08.088Z,13.02
2022-12-24T11:43:46.407Z,12.92
2022-12-24T11:46:53.312Z,12.79
2022-12-24T11:49:19.988Z,12.83
2022-12-24T11:52:23.392Z,12.66
2022-12-24T11:55:27.692Z,12.75
2022-12-24T11:58:27.620Z,12.94
2022-12-24T12:01:08.824Z,13.02
2022-12-24T12:03:43.642Z,12.99
2022-12-24T12:06:31.709Z,12.92
2022-12-24T12:09:03.596Z,12.75
2022-12-24T12:11:31.345Z,12.84
2022-12-24T12:14:00.578Z,13.01
2022-12-24T12:16:54.551Z,13.12
2022-12-24T12:19:22.097Z,13.08
2022-12-24T12:21:49.672Z,13.28
2022-12-24T12:24:22.493Z,13.28
2022-12-24T12:27:01.466Z,13.21
2022-12-24T12:29:32.858Z,13.11
2022-12-24T12:32:11.894Z,13.02
2022-12-24T12:34:50.106Z,12.89
2022-12-24T12:37:32.947Z,12.87
2022-12-24T13:10:56.412Z,13.46
2022-12-24T13:13:55.483Z,13.38
2022-12-24T13:16:32.257Z,13.30
2022-12-24T13:19:04.722Z,13.25
2022-12-24T13:21:31.705Z,13.29
2022-12-24T13:24:13.982Z,13.42
2022-12-24T13:26:41.094Z,13.33
2022-12-24T13:29:31.377Z,13.40
2022-12-24T13:32:20.177Z,13.32
2022-12-24T13:34:52.643Z,13.31
2022-12-24T13:37:42.312Z,13.33
2022-12-24T13:40:09.021Z,13.21
2022-12-24T13:43:05.663Z,13.18
2022-12-24T15:37:32.441Z,10.79
2022-12-24T15:40:12.396Z,10.75
2022-12-24T15:42:42.472Z,10.71
2022-12-24T18:06:23.950Z,11.15
2022-12-24T18:08:51.799Z,11.18
2022-12-24T18:29:55.993Z,11.04
2022-12-24T18:32:24.846Z,11.18
2022-12-24T18:34:51.822Z,11.07
2022-12-24T18:37:18.784Z,11.04
2022-12-24T18:39:45.446Z,11.00
2022-12-24T18:42:14.604Z,11.12
2022-12-24T18:58:46.959Z,11.06
2022-12-24T19:04:15.101Z,10.98
2022-12-24T19:21:23.779Z,10.92
2022-12-24T19:23:50.598Z,10.91
2022-12-24T19:26:18.595Z,10.94
2022-12-24T19:28:45.689Z,11.08
2022-12-24T19:31:15.065Z,11.19
2022-12-24T19:33:44.310Z,11.07
2022-12-24T19:36:13.418Z,10.94
2022-12-24T19:38:40.604Z,10.93
2022-12-24T19:41:13.997Z,10.97
2022-12-24T19:43:51.148Z,10.87
2022-12-24T19:46:22.819Z,10.90
2022-12-24T19:48:51.682Z,10.83
2022-12-24T19:51:18.962Z,10.87
2022-12-24T19:53:45.996Z,11.06
2022-12-24T19:56:16.090Z,10.94
2022-12-24T19:58:43.019Z,10.85
2022-12-24T20:01:15.605Z,10.88
2022-12-24T20:03:44.462Z,10.86
2022-12-24T20:06:12.531Z,10.96
2022-12-24T20:08:39.872Z,10.91
2022-12-24T20:11:07.981Z,10.94
2022-12-24T20:13:35.987Z,10.84
2022-12-24T20:16:08.375Z,10.83
2022-12-24T20:18:35.292Z,10.75
2022-12-24T20:21:03.206Z,10.72
2022-12-24T20:23:30.627Z,10.79
2022-12-24T20:26:02.395Z,10.70
2022-12-24T20:28:31.872Z,10.71
2022-12-24T20:30:58.562Z,10.52
2022-12-24T20:33:25.476Z,10.42
2022-12-24T20:35:52.105Z,10.48
2022-12-24T20:38:18.816Z,10.35
2022-12-24T20:40:46.764Z,10.19
2022-12-24T20:43:13.598Z,10.26
2022-12-24T20:45:41.184Z,10.20
2022-12-24T20:48:08.172Z,10.19
2022-12-24T20:50:34.816Z,10.12
2022-12-24T20:53:01.545Z,10.20
2022-12-24T20:55:28.208Z,10.06
2022-12-24T20:57:54.864Z,9.98
2022-12-24T21:00:21.773Z,9.94
2022-12-24T21:02:48.585Z,9.91
2022-12-24T21:05:15.403Z,9.86
2022-12-24T21:07:43.634Z,9.80
2022-12-24T21:10:11.663Z,9.84
2022-12-24T21:13:11.931Z,9.73
2022-12-24T21:15:40.006Z,9.75
2022-12-24T21:18:15.703Z,9.72
2022-12-24T21:20:43.456Z,9.78
2022-12-24T21:23:10.206Z,9.72
2022-12-24T21:25:37.141Z,9.72
2022-12-24T21:28:03.939Z,9.62
2022-12-24T21:30:32.303Z,9.63
2022-12-24T21:32:59.368Z,9.56
2022-12-24T21:35:26.428Z,9.56
2022-12-24T21:41:47.352Z,9.52
2022-12-24T21:44:14.056Z,9.51
2022-12-24T21:46:40.875Z,9.52
2022-12-24T21:49:29.248Z,9.54
2022-12-24T21:51:56.172Z,9.51
2022-12-24T21:54:30.660Z,9.39
2022-12-24T21:57:18.977Z,9.42
2022-12-24T21:59:45.997Z,9.43
2022-12-24T22:02:14.986Z,9.38
2022-12-24T22:04:42.466Z,9.28
2022-12-24T22:07:38.874Z,9.21
2022-12-24T22:10:27.673Z,9.11
2022-12-24T22:12:54.984Z,8.97
2022-12-24T22:15:22.808Z,8.80
2022-12-24T22:17:55.017Z,8.68
2022-12-24T22:20:21.917Z,8.69
2022-12-24T22:22:49.909Z,8.57
2022-12-24T22:25:18.196Z,8.43
2022-12-24T22:27:45.039Z,8.37
